sensor_id;sensor_type;location;lat;lon;timestamp;temperature;humidity
22562;DHT22;11447;50.562;8.504;2023-04-03T00:02:09;5.50;66.30
22562;DHT22;11447;50.562;8.504;2023-04-03T00:04:36;5.30;66.50
22562;DHT22;11447;50.562;8.504;2023-04-03T00:07:03;5.30;66.70
22562;DHT22;11447;50.562;8.504;2023-04-03T00:09:29;5.50;66.40
22562;DHT22;11447;50.562;8.504;2023-04-03T00:11:56;5.40;66.90
22562;DHT22;11447;50.562;8.504;2023-04-03T00:14:23;5.50;66.60
22562;DHT22;11447;50.562;8.504;2023-04-03T00:16:51;5.40;66.60
22562;DHT22;11447;50.562;8.504;2023-04-03T00:19:18;5.50;66.40
22562;DHT22;11447;50.562;8.504;2023-04-03T00:21:45;5.60;65.40
22562;DHT22;11447;50.562;8.504;2023-04-03T00:24:11;5.30;65.30
22562;DHT22;11447;50.562;8.504;2023-04-03T00:26:38;5.40;65.40
22562;DHT22;11447;50.562;8.504;2023-04-03T00:29:05;5.50;65.90
22562;DHT22;11447;50.562;8.504;2023-04-03T00:31:31;5.40;65.80
22562;DHT22;11447;50.562;8.504;2023-04-03T00:33:58;5.40;66.20
22562;DHT22;11447;50.562;8.504;2023-04-03T00:36:24;5.50;66.00
22562;DHT22;11447;50.562;8.504;2023-04-03T00:38:51;5.30;66.10
22562;DHT22;11447;50.562;8.504;2023-04-03T00:41:18;5.50;66.60
22562;DHT22;11447;50.562;8.504;2023-04-03T00:43:44;5.50;66.70
22562;DHT22;11447;50.562;8.504;2023-04-03T00:46:11;5.60;66.70
22562;DHT22;11447;50.562;8.504;2023-04-03T00:48:41;5.70;66.90
22562;DHT22;11447;50.562;8.504;2023-04-03T00:51:20;5.60;65.50
22562;DHT22;11447;50.562;8.504;2023-04-03T00:56:16;5.60;66.00
22562;DHT22;11447;50.562;8.504;2023-04-03T00:58:45;5.60;66.20
22562;DHT22;11447;50.562;8.504;2023-04-03T01:01:16;5.30;66.30
22562;DHT22;11447;50.562;8.504;2023-04-03T01:03:44;5.20;66.30
22562;DHT22;11447;50.562;8.504;2023-04-03T01:06:11;5.20;66.00
22562;DHT22;11447;50.562;8.504;2023-04-03T01:08:39;5.20;66.20
22562;DHT22;11447;50.562;8.504;2023-04-03T01:11:07;5.30;66.10
22562;DHT22;11447;50.562;8.504;2023-04-03T01:13:34;5.20;65.60
22562;DHT22;11447;50.562;8.504;2023-04-03T01:16:03;5.30;65.50
22562;DHT22;11447;50.562;8.504;2023-04-03T01:18:31;5.20;65.90
22562;DHT22;11447;50.562;8.504;2023-04-03T01:21:06;5.20;66.00
22562;DHT22;11447;50.562;8.504;2023-04-03T01:26:07;5.10;65.80
22562;DHT22;11447;50.562;8.504;2023-04-03T01:28:34;4.90;65.60
22562;DHT22;11447;50.562;8.504;2023-04-03T01:31:24;5.20;65.90
22562;DHT22;11447;50.562;8.504;2023-04-03T01:33:51;5.00;65.90
22562;DHT22;11447;50.562;8.504;2023-04-03T01:36:20;5.10;65.40
22562;DHT22;11447;50.562;8.504;2023-04-03T01:38:47;5.10;65.50
22562;DHT22;11447;50.562;8.504;2023-04-03T01:41:16;5.00;65.10
22562;DHT22;11447;50.562;8.504;2023-04-03T01:43:43;4.90;65.30
22562;DHT22;11447;50.562;8.504;2023-04-03T01:46:10;5.00;65.20
22562;DHT22;11447;50.562;8.504;2023-04-03T01:48:36;5.00;64.80
22562;DHT22;11447;50.562;8.504;2023-04-03T01:51:03;4.90;64.60
22562;DHT22;11447;50.562;8.504;2023-04-03T01:53:30;4.90;65.50
22562;DHT22;11447;50.562;8.504;2023-04-03T01:55:56;5.00;64.80
22562;DHT22;11447;50.562;8.504;2023-04-03T01:58:23;5.00;64.80
22562;DHT22;11447;50.562;8.504;2023-04-03T02:00:52;5.00;64.10
22562;DHT22;11447;50.562;8.504;2023-04-03T02:03:19;4.70;64.40
22562;DHT22;11447;50.562;8.504;2023-04-03T02:05:46;4.80;64.10
22562;DHT22;11447;50.562;8.504;2023-04-03T02:08:13;4.70;63.60
22562;DHT22;11447;50.562;8.504;2023-04-03T02:10:40;4.60;64.00
22562;DHT22;11447;50.562;8.504;2023-04-03T02:13:07;4.50;64.60
22562;DHT22;11447;50.562;8.504;2023-04-03T02:15:33;4.60;65.00
22562;DHT22;11447;50.562;8.504;2023-04-03T02:18:02;4.70;65.10
22562;DHT22;11447;50.562;8.504;2023-04-03T02:20:33;4.60;65.30
22562;DHT22;11447;50.562;8.504;2023-04-03T02:23:00;4.50;65.20
22562;DHT22;11447;50.562;8.504;2023-04-03T02:25:26;4.70;65.40
22562;DHT22;11447;50.562;8.504;2023-04-03T02:27:53;4.50;65.40
22562;DHT22;11447;50.562;8.504;2023-04-03T02:30:20;4.40;65.70
22562;DHT22;11447;50.562;8.504;2023-04-03T02:32:46;4.60;65.90
22562;DHT22;11447;50.562;8.504;2023-04-03T02:35:13;4.40;66.20
22562;DHT22;11447;50.562;8.504;2023-04-03T02:37:40;4.60;66.30
22562;DHT22;11447;50.562;8.504;2023-04-03T02:40:08;4.40;66.50
22562;DHT22;11447;50.562;8.504;2023-04-03T02:42:34;4.50;66.60
22562;DHT22;11447;50.562;8.504;2023-04-03T02:45:06;4.30;67.30
22562;DHT22;11447;50.562;8.504;2023-04-03T02:47:33;4.20;67.30
22562;DHT22;11447;50.562;8.504;2023-04-03T02:50:00;4.20;67.50
22562;DHT22;11447;50.562;8.504;2023-04-03T02:52:26;4.10;67.30
22562;DHT22;11447;50.562;8.504;2023-04-03T02:54:53;4.10;67.30
22562;DHT22;11447;50.562;8.504;2023-04-03T02:57:19;4.00;67.50
22562;DHT22;11447;50.562;8.504;2023-04-03T02:59:48;3.90;67.90
22562;DHT22;11447;50.562;8.504;2023-04-03T03:02:17;4.00;68.00
22562;DHT22;11447;50.562;8.504;2023-04-03T03:04:44;3.90;67.80
22562;DHT22;11447;50.562;8.504;2023-04-03T03:07:11;3.80;67.90
22562;DHT22;11447;50.562;8.504;2023-04-03T03:09:40;3.70;68.10
22562;DHT22;11447;50.562;8.504;2023-04-03T03:12:06;3.80;67.90
22562;DHT22;11447;50.562;8.504;2023-04-03T03:14:33;3.50;68.40
22562;DHT22;11447;50.562;8.504;2023-04-03T03:17:00;3.70;68.60
22562;DHT22;11447;50.562;8.504;2023-04-03T03:19:26;3.50;68.90
22562;DHT22;11447;50.562;8.504;2023-04-03T03:21:53;3.60;68.90
22562;DHT22;11447;50.562;8.504;2023-04-03T03:24:19;3.60;68.80
22562;DHT22;11447;50.562;8.504;2023-04-03T03:26:46;3.60;69.30
22562;DHT22;11447;50.562;8.504;2023-04-03T03:29:13;3.40;69.50
22562;DHT22;11447;50.562;8.504;2023-04-03T03:31:39;3.50;69.30
22562;DHT22;11447;50.562;8.504;2023-04-03T03:34:06;3.50;69.50
22562;DHT22;11447;50.562;8.504;2023-04-03T03:36:35;3.30;69.60
22562;DHT22;11447;50.562;8.504;2023-04-03T03:39:01;3.30;69.70
22562;DHT22;11447;50.562;8.504;2023-04-03T03:41:28;3.40;70.00
22562;DHT22;11447;50.562;8.504;2023-04-03T03:43:55;3.20;70.40
22562;DHT22;11447;50.562;8.504;2023-04-03T03:46:21;3.30;70.70
22562;DHT22;11447;50.562;8.504;2023-04-03T03:48:48;3.20;70.60
22562;DHT22;11447;50.562;8.504;2023-04-03T03:51:14;3.30;70.60
22562;DHT22;11447;50.562;8.504;2023-04-03T03:53:41;3.00;71.30
22562;DHT22;11447;50.562;8.504;2023-04-03T03:56:10;3.10;71.50
22562;DHT22;11447;50.562;8.504;2023-04-03T03:58:37;2.80;71.80
22562;DHT22;11447;50.562;8.504;2023-04-03T04:01:03;2.90;71.80
22562;DHT22;11447;50.562;8.504;2023-04-03T04:03:34;2.90;72.10
22562;DHT22;11447;50.562;8.504;2023-04-03T04:06:01;2.80;72.10
22562;DHT22;11447;50.562;8.504;2023-04-03T04:08:27;2.80;72.10
22562;DHT22;11447;50.562;8.504;2023-04-03T04:10:54;2.80;72.00
22562;DHT22;11447;50.562;8.504;2023-04-03T04:13:23;2.70;72.20
22562;DHT22;11447;50.562;8.504;2023-04-03T04:15:52;2.90;71.80
22562;DHT22;11447;50.562;8.504;2023-04-03T04:18:21;3.10;71.80
22562;DHT22;11447;50.562;8.504;2023-04-03T04:20:50;3.00;71.60
22562;DHT22;11447;50.562;8.504;2023-04-03T04:23:17;2.70;72.00
22562;DHT22;11447;50.562;8.504;2023-04-03T04:25:47;2.70;72.90
22562;DHT22;11447;50.562;8.504;2023-04-03T04:28:14;2.90;72.50
22562;DHT22;11447;50.562;8.504;2023-04-03T04:30:41;2.50;72.50
22562;DHT22;11447;50.562;8.504;2023-04-03T04:33:08;2.50;72.50
22562;DHT22;11447;50.562;8.504;2023-04-03T04:35:34;2.60;72.80
22562;DHT22;11447;50.562;8.504;2023-04-03T04:38:01;2.80;72.40
22562;DHT22;11447;50.562;8.504;2023-04-03T04:40:29;2.60;71.80
22562;DHT22;11447;50.562;8.504;2023-04-03T04:42:55;2.50;72.00
22562;DHT22;11447;50.562;8.504;2023-04-03T04:45:22;2.60;72.00
22562;DHT22;11447;50.562;8.504;2023-04-03T04:47:49;2.60;72.10
22562;DHT22;11447;50.562;8.504;2023-04-03T04:50:18;2.40;72.10
22562;DHT22;11447;50.562;8.504;2023-04-03T04:52:44;2.50;71.50
22562;DHT22;11447;50.562;8.504;2023-04-03T04:55:11;2.40;71.70
22562;DHT22;11447;50.562;8.504;2023-04-03T04:57:40;2.50;71.40
22562;DHT22;11447;50.562;8.504;2023-04-03T05:00:09;2.50;71.30
22562;DHT22;11447;50.562;8.504;2023-04-03T05:02:36;2.30;72.00
22562;DHT22;11447;50.562;8.504;2023-04-03T05:05:03;2.10;72.30
22562;DHT22;11447;50.562;8.504;2023-04-03T05:07:31;2.20;72.20
22562;DHT22;11447;50.562;8.504;2023-04-03T05:09:57;2.10;71.80
22562;DHT22;11447;50.562;8.504;2023-04-03T05:12:24;2.20;72.10
22562;DHT22;11447;50.562;8.504;2023-04-03T05:14:51;1.90;72.20
22562;DHT22;11447;50.562;8.504;2023-04-03T05:17:17;2.10;72.20
22562;DHT22;11447;50.562;8.504;2023-04-03T05:19:46;2.00;72.50
22562;DHT22;11447;50.562;8.504;2023-04-03T05:22:15;1.90;72.70
22562;DHT22;11447;50.562;8.504;2023-04-03T05:24:42;2.00;72.60
22562;DHT22;11447;50.562;8.504;2023-04-03T05:27:09;2.00;72.20
22562;DHT22;11447;50.562;8.504;2023-04-03T05:29:35;1.80;73.00
22562;DHT22;11447;50.562;8.504;2023-04-03T05:32:02;1.80;73.00
22562;DHT22;11447;50.562;8.504;2023-04-03T05:34:31;1.60;72.70
22562;DHT22;11447;50.562;8.504;2023-04-03T05:36:58;1.80;72.50
22562;DHT22;11447;50.562;8.504;2023-04-03T05:39:25;1.90;72.80
22562;DHT22;11447;50.562;8.504;2023-04-03T05:41:52;1.70;72.80
22562;DHT22;11447;50.562;8.504;2023-04-03T05:44:18;1.60;73.30
22562;DHT22;11447;50.562;8.504;2023-04-03T05:46:47;1.70;73.40
22562;DHT22;11447;50.562;8.504;2023-04-03T05:49:14;1.80;73.40
22562;DHT22;11447;50.562;8.504;2023-04-03T05:51:41;1.70;73.40
22562;DHT22;11447;50.562;8.504;2023-04-03T05:54:41;1.80;73.50
22562;DHT22;11447;50.562;8.504;2023-04-03T05:57:00;2.00;73.10
22562;DHT22;11447;50.562;8.504;2023-04-03T05:59:29;1.70;73.50
22562;DHT22;11447;50.562;8.504;2023-04-03T06:01:59;1.80;73.50
22562;DHT22;11447;50.562;8.504;2023-04-03T06:04:25;2.10;72.80
22562;DHT22;11447;50.562;8.504;2023-04-03T06:06:55;2.20;72.60
22562;DHT22;11447;50.562;8.504;2023-04-03T06:09:24;2.00;73.10
22562;DHT22;11447;50.562;8.504;2023-04-03T06:11:51;1.80;73.50
22562;DHT22;11447;50.562;8.504;2023-04-03T06:14:19;1.90;73.90
22562;DHT22;11447;50.562;8.504;2023-04-03T06:16:45;1.80;74.30
22562;DHT22;11447;50.562;8.504;2023-04-03T06:19:12;2.00;74.20
22562;DHT22;11447;50.562;8.504;2023-04-03T06:21:39;2.00;74.00
22562;DHT22;11447;50.562;8.504;2023-04-03T06:24:06;1.90;73.80
22562;DHT22;11447;50.562;8.504;2023-04-03T06:26:35;1.80;74.00
22562;DHT22;11447;50.562;8.504;2023-04-03T06:29:01;2.20;73.50
22562;DHT22;11447;50.562;8.504;2023-04-03T06:31:29;2.20;73.10
22562;DHT22;11447;50.562;8.504;2023-04-03T06:34:01;2.30;72.90
22562;DHT22;11447;50.562;8.504;2023-04-03T06:36:28;2.20;73.20
22562;DHT22;11447;50.562;8.504;2023-04-03T06:38:55;2.30;72.90
22562;DHT22;11447;50.562;8.504;2023-04-03T06:41:24;2.30;72.90
22562;DHT22;11447;50.562;8.504;2023-04-03T06:43:52;2.20;73.70
22562;DHT22;11447;50.562;8.504;2023-04-03T06:46:19;1.90;73.70
22562;DHT22;11447;50.562;8.504;2023-04-03T06:48:47;2.20;73.20
22562;DHT22;11447;50.562;8.504;2023-04-03T06:51:23;2.20;72.90
22562;DHT22;11447;50.562;8.504;2023-04-03T06:53:51;2.30;72.40
22562;DHT22;11447;50.562;8.504;2023-04-03T06:56:18;1.90;72.70
22562;DHT22;11447;50.562;8.504;2023-04-03T06:58:45;2.00;73.10
22562;DHT22;11447;50.562;8.504;2023-04-03T07:01:15;2.50;72.80
22562;DHT22;11447;50.562;8.504;2023-04-03T07:03:44;2.30;72.60
22562;DHT22;11447;50.562;8.504;2023-04-03T07:06:11;2.60;72.00
22562;DHT22;11447;50.562;8.504;2023-04-03T07:08:38;2.70;71.60
22562;DHT22;11447;50.562;8.504;2023-04-03T07:11:05;2.40;72.30
22562;DHT22;11447;50.562;8.504;2023-04-03T07:13:32;2.40;71.70
22562;DHT22;11447;50.562;8.504;2023-04-03T07:16:01;3.40;68.40
22562;DHT22;11447;50.562;8.504;2023-04-03T07:18:30;5.20;62.40
22562;DHT22;11447;50.562;8.504;2023-04-03T07:20:59;5.70;60.20
22562;DHT22;11447;50.562;8.504;2023-04-03T07:23:25;7.40;57.40
22562;DHT22;11447;50.562;8.504;2023-04-03T07:25:53;4.90;62.40
22562;DHT22;11447;50.562;8.504;2023-04-03T07:28:20;4.10;65.70
22562;DHT22;11447;50.562;8.504;2023-04-03T07:30:53;6.00;61.30
22562;DHT22;11447;50.562;8.504;2023-04-03T07:33:22;5.80;61.10
22562;DHT22;11447;50.562;8.504;2023-04-03T07:35:49;4.50;64.20
22562;DHT22;11447;50.562;8.504;2023-04-03T07:38:16;4.30;66.00
22562;DHT22;11447;50.562;8.504;2023-04-03T07:40:49;4.60;64.40
22562;DHT22;11447;50.562;8.504;2023-04-03T07:43:16;4.20;64.20
22562;DHT22;11447;50.562;8.504;2023-04-03T07:45:47;4.20;65.40
22562;DHT22;11447;50.562;8.504;2023-04-03T07:48:23;3.80;66.10
22562;DHT22;11447;50.562;8.504;2023-04-03T07:50:52;3.90;66.60
22562;DHT22;11447;50.562;8.504;2023-04-03T07:53:21;3.80;65.80
22562;DHT22;11447;50.562;8.504;2023-04-03T07:55:48;3.70;65.70
22562;DHT22;11447;50.562;8.504;2023-04-03T07:58:16;3.80;65.70
22562;DHT22;11447;50.562;8.504;2023-04-03T08:00:43;3.80;65.60
22562;DHT22;11447;50.562;8.504;2023-04-03T08:03:10;3.20;67.00
22562;DHT22;11447;50.562;8.504;2023-04-03T08:05:40;3.30;68.10
22562;DHT22;11447;50.562;8.504;2023-04-03T08:08:07;3.50;66.20
22562;DHT22;11447;50.562;8.504;2023-04-03T08:10:34;3.00;67.60
22562;DHT22;11447;50.562;8.504;2023-04-03T08:13:01;3.20;67.30
22562;DHT22;11447;50.562;8.504;2023-04-03T08:15:31;3.30;66.50
22562;DHT22;11447;50.562;8.504;2023-04-03T08:17:58;3.30;66.30
22562;DHT22;11447;50.562;8.504;2023-04-03T08:20:25;3.00;67.30
22562;DHT22;11447;50.562;8.504;2023-04-03T08:22:52;3.20;67.20
22562;DHT22;11447;50.562;8.504;2023-04-03T08:25:18;3.40;66.80
22562;DHT22;11447;50.562;8.504;2023-04-03T08:27:47;3.20;65.30
22562;DHT22;11447;50.562;8.504;2023-04-03T08:30:14;3.30;65.00
22562;DHT22;11447;50.562;8.504;2023-04-03T08:32:41;3.60;64.40
22562;DHT22;11447;50.562;8.504;2023-04-03T08:35:11;4.00;62.50
22562;DHT22;11447;50.562;8.504;2023-04-03T08:37:38;3.70;63.10
22562;DHT22;11447;50.562;8.504;2023-04-03T08:40:05;3.80;63.90
22562;DHT22;11447;50.562;8.504;2023-04-03T08:47:38;4.00;64.20
22562;DHT22;11447;50.562;8.504;2023-04-03T08:50:10;4.00;64.10
22562;DHT22;11447;50.562;8.504;2023-04-03T08:52:39;4.30;63.60
22562;DHT22;11447;50.562;8.504;2023-04-03T08:57:41;4.10;62.90
22562;DHT22;11447;50.562;8.504;2023-04-03T09:05:15;3.80;63.60
22562;DHT22;11447;50.562;8.504;2023-04-03T09:07:49;3.80;63.90
22562;DHT22;11447;50.562;8.504;2023-04-03T09:10:19;3.70;63.50
22562;DHT22;11447;50.562;8.504;2023-04-03T09:12:59;4.10;62.20
22562;DHT22;11447;50.562;8.504;2023-04-03T09:15:27;3.70;62.80
22562;DHT22;11447;50.562;8.504;2023-04-03T09:18:21;3.90;62.10
22562;DHT22;11447;50.562;8.504;2023-04-03T09:25:43;3.70;62.10
22562;DHT22;11447;50.562;8.504;2023-04-03T09:28:10;4.10;61.40
22562;DHT22;11447;50.562;8.504;2023-04-03T09:30:37;4.00;61.40
22562;DHT22;11447;50.562;8.504;2023-04-03T09:33:05;4.30;62.20
22562;DHT22;11447;50.562;8.504;2023-04-03T09:35:36;4.60;60.30
22562;DHT22;11447;50.562;8.504;2023-04-03T09:45:46;5.00;58.90
22562;DHT22;11447;50.562;8.504;2023-04-03T09:55:54;4.90;56.00
22562;DHT22;11447;50.562;8.504;2023-04-03T09:58:26;4.70;53.00
22562;DHT22;11447;50.562;8.504;2023-04-03T10:01:20;5.00;54.60
22562;DHT22;11447;50.562;8.504;2023-04-03T10:03:47;5.30;53.70
22562;DHT22;11447;50.562;8.504;2023-04-03T10:06:29;5.10;52.90
22562;DHT22;11447;50.562;8.504;2023-04-03T10:09:01;4.90;53.70
22562;DHT22;11447;50.562;8.504;2023-04-03T10:11:30;5.00;53.90
22562;DHT22;11447;50.562;8.504;2023-04-03T10:13:58;5.40;52.20
22562;DHT22;11447;50.562;8.504;2023-04-03T10:16:46;5.90;52.30
22562;DHT22;11447;50.562;8.504;2023-04-03T10:19:29;6.00;52.70
22562;DHT22;11447;50.562;8.504;2023-04-03T10:21:59;5.80;50.10
22562;DHT22;11447;50.562;8.504;2023-04-03T10:24:34;5.90;48.70
22562;DHT22;11447;50.562;8.504;2023-04-03T10:27:05;5.60;50.20
22562;DHT22;11447;50.562;8.504;2023-04-03T10:34:43;6.40;49.80
22562;DHT22;11447;50.562;8.504;2023-04-03T10:37:25;6.20;50.10
22562;DHT22;11447;50.562;8.504;2023-04-03T10:47:57;6.90;47.70
22562;DHT22;11447;50.562;8.504;2023-04-03T10:53:08;6.90;46.20
22562;DHT22;11447;50.562;8.504;2023-04-03T10:55:40;7.00;45.90
22562;DHT22;11447;50.562;8.504;2023-04-03T10:58:14;6.80;45.90
22562;DHT22;11447;50.562;8.504;2023-04-03T11:00:48;7.10;45.60
22562;DHT22;11447;50.562;8.504;2023-04-03T11:03:35;6.80;45.90
22562;DHT22;11447;50.562;8.504;2023-04-03T11:06:05;7.20;47.30
22562;DHT22;11447;50.562;8.504;2023-04-03T11:08:34;6.70;44.20
22562;DHT22;11447;50.562;8.504;2023-04-03T11:11:16;7.00;47.30
22562;DHT22;11447;50.562;8.504;2023-04-03T11:13:50;6.90;46.00
22562;DHT22;11447;50.562;8.504;2023-04-03T11:16:20;7.00;46.30
22562;DHT22;11447;50.562;8.504;2023-04-03T11:18:51;6.80;46.40
22562;DHT22;11447;50.562;8.504;2023-04-03T11:21:24;6.50;45.80
22562;DHT22;11447;50.562;8.504;2023-04-03T11:23:56;6.30;45.50
22562;DHT22;11447;50.562;8.504;2023-04-03T11:26:27;5.90;45.80
22562;DHT22;11447;50.562;8.504;2023-04-03T11:28:56;6.30;47.90
22562;DHT22;11447;50.562;8.504;2023-04-03T11:36:47;6.80;43.50
22562;DHT22;11447;50.562;8.504;2023-04-03T11:41:47;6.70;43.60
22562;DHT22;11447;50.562;8.504;2023-04-03T11:47:00;7.10;42.70
22562;DHT22;11447;50.562;8.504;2023-04-03T11:52:27;7.20;43.50
22562;DHT22;11447;50.562;8.504;2023-04-03T11:55:09;7.20;44.20
22562;DHT22;11447;50.562;8.504;2023-04-03T12:05:49;7.10;45.00
22562;DHT22;11447;50.562;8.504;2023-04-03T12:21:17;7.50;43.00
22562;DHT22;11447;50.562;8.504;2023-04-03T12:29:33;7.80;43.50
22562;DHT22;11447;50.562;8.504;2023-04-03T12:35:36;7.80;42.40
22562;DHT22;11447;50.562;8.504;2023-04-03T12:38:30;7.90;43.20
22562;DHT22;11447;50.562;8.504;2023-04-03T12:45:50;8.00;43.30
22562;DHT22;11447;50.562;8.504;2023-04-03T12:48:28;8.20;44.70
22562;DHT22;11447;50.562;8.504;2023-04-03T12:50:55;8.30;42.70
22562;DHT22;11447;50.562;8.504;2023-04-03T12:53:41;8.00;42.40
22562;DHT22;11447;50.562;8.504;2023-04-03T12:56:23;8.00;42.30
22562;DHT22;11447;50.562;8.504;2023-04-03T12:58:53;7.70;43.90
22562;DHT22;11447;50.562;8.504;2023-04-03T13:01:24;7.70;43.40
22562;DHT22;11447;50.562;8.504;2023-04-03T13:03:55;7.90;43.40
22562;DHT22;11447;50.562;8.504;2023-04-03T13:06:32;8.20;44.90
22562;DHT22;11447;50.562;8.504;2023-04-03T13:09:00;8.30;44.60
22562;DHT22;11447;50.562;8.504;2023-04-03T13:11:32;8.10;44.80
22562;DHT22;11447;50.562;8.504;2023-04-03T13:14:01;8.30;44.60
22562;DHT22;11447;50.562;8.504;2023-04-03T13:16:29;7.70;44.20
22562;DHT22;11447;50.562;8.504;2023-04-03T13:18:58;7.90;44.10
22562;DHT22;11447;50.562;8.504;2023-04-03T13:21:28;7.50;44.50
22562;DHT22;11447;50.562;8.504;2023-04-03T13:23:57;7.80;45.10
22562;DHT22;11447;50.562;8.504;2023-04-03T13:26:41;8.10;44.60
22562;DHT22;11447;50.562;8.504;2023-04-03T13:29:17;8.20;43.10
22562;DHT22;11447;50.562;8.504;2023-04-03T13:31:56;8.00;43.40
22562;DHT22;11447;50.562;8.504;2023-04-03T13:34:23;8.10;42.50
22562;DHT22;11447;50.562;8.504;2023-04-03T13:36:56;8.30;43.00
22562;DHT22;11447;50.562;8.504;2023-04-03T13:39:25;8.00;41.90
22562;DHT22;11447;50.562;8.504;2023-04-03T13:41:59;7.80;42.20
22562;DHT22;11447;50.562;8.504;2023-04-03T13:46:55;7.90;42.20
22562;DHT22;11447;50.562;8.504;2023-04-03T13:49:28;8.40;44.00
22562;DHT22;11447;50.562;8.504;2023-04-03T13:51:58;8.20;42.30
22562;DHT22;11447;50.562;8.504;2023-04-03T13:57:00;7.90;44.10
22562;DHT22;11447;50.562;8.504;2023-04-03T13:59:29;8.30;45.10
22562;DHT22;11447;50.562;8.504;2023-04-03T14:06:56;8.10;43.30
22562;DHT22;11447;50.562;8.504;2023-04-03T14:14:18;8.30;43.10
22562;DHT22;11447;50.562;8.504;2023-04-03T14:16:47;8.30;44.00
22562;DHT22;11447;50.562;8.504;2023-04-03T14:19:17;8.40;43.10
22562;DHT22;11447;50.562;8.504;2023-04-03T14:21:44;7.70;42.30
22562;DHT22;11447;50.562;8.504;2023-04-03T14:24:10;7.70;42.80
22562;DHT22;11447;50.562;8.504;2023-04-03T14:26:37;7.60;42.70
22562;DHT22;11447;50.562;8.504;2023-04-03T14:29:09;8.10;44.20
22562;DHT22;11447;50.562;8.504;2023-04-03T14:31:37;8.50;44.30
22562;DHT22;11447;50.562;8.504;2023-04-03T14:34:06;8.40;41.70
22562;DHT22;11447;50.562;8.504;2023-04-03T14:36:33;8.10;42.60
22562;DHT22;11447;50.562;8.504;2023-04-03T14:39:04;8.20;43.10
22562;DHT22;11447;50.562;8.504;2023-04-03T14:41:35;8.40;42.60
22562;DHT22;11447;50.562;8.504;2023-04-03T14:44:02;7.90;43.10
22562;DHT22;11447;50.562;8.504;2023-04-03T14:46:30;7.80;42.40
22562;DHT22;11447;50.562;8.504;2023-04-03T14:49:15;8.00;42.50
22562;DHT22;11447;50.562;8.504;2023-04-03T14:51:42;7.90;43.10
22562;DHT22;11447;50.562;8.504;2023-04-03T14:54:16;7.90;43.00
22562;DHT22;11447;50.562;8.504;2023-04-03T14:56:43;7.90;43.40
22562;DHT22;11447;50.562;8.504;2023-04-03T14:59:11;8.30;43.60
22562;DHT22;11447;50.562;8.504;2023-04-03T15:01:40;8.60;42.80
22562;DHT22;11447;50.562;8.504;2023-04-03T15:04:14;8.50;41.40
22562;DHT22;11447;50.562;8.504;2023-04-03T15:06:42;8.50;42.50
22562;DHT22;11447;50.562;8.504;2023-04-03T15:09:24;8.40;43.00
22562;DHT22;11447;50.562;8.504;2023-04-03T15:11:52;7.90;43.20
22562;DHT22;11447;50.562;8.504;2023-04-03T15:14:19;7.80;43.30
22562;DHT22;11447;50.562;8.504;2023-04-03T15:17:05;7.50;43.20
22562;DHT22;11447;50.562;8.504;2023-04-03T15:19:35;7.70;42.80
22562;DHT22;11447;50.562;8.504;2023-04-03T15:22:03;7.80;43.70
22562;DHT22;11447;50.562;8.504;2023-04-03T15:24:29;8.10;43.10
22562;DHT22;11447;50.562;8.504;2023-04-03T15:26:56;7.80;43.30
22562;DHT22;11447;50.562;8.504;2023-04-03T15:29:23;7.90;42.70
22562;DHT22;11447;50.562;8.504;2023-04-03T15:31:49;7.90;42.20
22562;DHT22;11447;50.562;8.504;2023-04-03T15:34:19;8.20;42.10
22562;DHT22;11447;50.562;8.504;2023-04-03T15:36:48;8.10;42.30
22562;DHT22;11447;50.562;8.504;2023-04-03T15:39:15;8.30;42.80
22562;DHT22;11447;50.562;8.504;2023-04-03T15:41:42;8.20;43.20
22562;DHT22;11447;50.562;8.504;2023-04-03T15:44:14;8.40;43.00
22562;DHT22;11447;50.562;8.504;2023-04-03T15:46:47;8.00;43.00
22562;DHT22;11447;50.562;8.504;2023-04-03T15:49:18;8.30;42.00
22562;DHT22;11447;50.562;8.504;2023-04-03T15:51:45;8.10;41.20
22562;DHT22;11447;50.562;8.504;2023-04-03T15:54:12;7.70;42.10
22562;DHT22;11447;50.562;8.504;2023-04-03T15:56:39;7.90;42.50
22562;DHT22;11447;50.562;8.504;2023-04-03T15:59:05;7.80;43.20
22562;DHT22;11447;50.562;8.504;2023-04-03T16:01:32;7.80;43.90
22562;DHT22;11447;50.562;8.504;2023-04-03T16:03:59;7.90;43.20
22562;DHT22;11447;50.562;8.504;2023-04-03T16:06:26;7.70;43.70
22562;DHT22;11447;50.562;8.504;2023-04-03T16:08:55;7.70;43.60
22562;DHT22;11447;50.562;8.504;2023-04-03T16:11:27;7.60;43.40
22562;DHT22;11447;50.562;8.504;2023-04-03T16:13:54;7.60;43.80
22562;DHT22;11447;50.562;8.504;2023-04-03T16:16:21;7.60;44.00
22562;DHT22;11447;50.562;8.504;2023-04-03T16:18:48;7.60;43.90
22562;DHT22;11447;50.562;8.504;2023-04-03T16:21:15;7.20;43.60
22562;DHT22;11447;50.562;8.504;2023-04-03T16:23:43;7.30;44.20
22562;DHT22;11447;50.562;8.504;2023-04-03T16:26:09;7.60;43.50
22562;DHT22;11447;50.562;8.504;2023-04-03T16:28:36;7.50;42.90
22562;DHT22;11447;50.562;8.504;2023-04-03T16:31:03;7.40;43.40
22562;DHT22;11447;50.562;8.504;2023-04-03T16:33:31;7.40;44.00
22562;DHT22;11447;50.562;8.504;2023-04-03T16:35:58;7.40;43.50
22562;DHT22;11447;50.562;8.504;2023-04-03T16:38:27;7.40;44.00
22562;DHT22;11447;50.562;8.504;2023-04-03T16:40:54;7.50;44.90
22562;DHT22;11447;50.562;8.504;2023-04-03T16:43:23;7.40;45.00
22562;DHT22;11447;50.562;8.504;2023-04-03T16:45:49;7.40;45.60
22562;DHT22;11447;50.562;8.504;2023-04-03T16:48:20;7.50;45.70
22562;DHT22;11447;50.562;8.504;2023-04-03T16:50:47;7.40;45.20
22562;DHT22;11447;50.562;8.504;2023-04-03T16:53:15;7.60;45.10
22562;DHT22;11447;50.562;8.504;2023-04-03T16:55:41;7.40;45.10
22562;DHT22;11447;50.562;8.504;2023-04-03T16:58:08;7.10;45.10
22562;DHT22;11447;50.562;8.504;2023-04-03T17:00:37;7.00;45.40
22562;DHT22;11447;50.562;8.504;2023-04-03T17:03:04;7.00;45.70
22562;DHT22;11447;50.562;8.504;2023-04-03T17:05:30;6.80;46.10
22562;DHT22;11447;50.562;8.504;2023-04-03T17:08:00;6.70;46.10
22562;DHT22;11447;50.562;8.504;2023-04-03T17:10:27;6.80;46.40
22562;DHT22;11447;50.562;8.504;2023-04-03T17:12:54;6.80;46.50
22562;DHT22;11447;50.562;8.504;2023-04-03T17:15:21;6.80;46.50
22562;DHT22;11447;50.562;8.504;2023-04-03T17:17:47;6.60;45.80
22562;DHT22;11447;50.562;8.504;2023-04-03T17:20:15;6.80;46.30
22562;DHT22;11447;50.562;8.504;2023-04-03T17:22:44;6.80;45.60
22562;DHT22;11447;50.562;8.504;2023-04-03T17:25:10;6.60;44.70
22562;DHT22;11447;50.562;8.504;2023-04-03T17:27:41;6.60;44.90
22562;DHT22;11447;50.562;8.504;2023-04-03T17:30:08;6.50;45.30
22562;DHT22;11447;50.562;8.504;2023-04-03T17:32:34;6.30;45.80
22562;DHT22;11447;50.562;8.504;2023-04-03T17:35:01;6.50;46.30
22562;DHT22;11447;50.562;8.504;2023-04-03T17:37:33;6.30;46.30
22562;DHT22;11447;50.562;8.504;2023-04-03T17:39:59;6.40;46.70
22562;DHT22;11447;50.562;8.504;2023-04-03T17:42:26;6.50;45.90
22562;DHT22;11447;50.562;8.504;2023-04-03T17:44:53;6.10;46.50
22562;DHT22;11447;50.562;8.504;2023-04-03T17:47:19;6.30;46.60
22562;DHT22;11447;50.562;8.504;2023-04-03T17:49:48;6.20;46.40
22562;DHT22;11447;50.562;8.504;2023-04-03T17:52:17;6.10;46.00
22562;DHT22;11447;50.562;8.504;2023-04-03T17:54:49;6.00;46.40